AFL4KY LTFJ-LTAN
Flight info
| Callsign | AFL4KY |
|---|---|
| Flight time | N/A |
| Altitude | 31000 |
| Route | ROXUK UN617 ERVAG UT179 KFK UL620 OKLAM UB545 SEHIR SEHIR1V·D·V/19R |
| Aircraft | T134/M-SDFGHRUWY/A |
Departure
| Time | N/A |
|---|---|
| Airport | Istanbul Sabiha Gökçen International Airport (LTFJ) |
Arrival
| Time | 2026-05-06 14:03 |
|---|---|
| Airport | Konya Airport (LTAN) |
| Time | Latitude | Longitude | Altitude | Speed | Heading |
|---|---|---|---|---|---|
| 2026-05-06 14:02 | 37.97146 | 32.56070 | 3366 ft | 3 kts | 71° |
| 2026-05-06 14:03 | 37.97189 | 32.56107 | 3365 ft | 13 kts | 17° |
| 2026-05-06 14:03 | 37.97309 | 32.56151 | 3368 ft | 18 kts | 16° |
| 2026-05-06 14:03 | 37.97436 | 32.56200 | 3370 ft | 19 kts | 17° |
| 2026-05-06 14:03 | 37.97572 | 32.56251 | 3372 ft | 20 kts | 16° |
| 2026-05-06 14:04 | 37.97711 | 32.56305 | 3374 ft | 20 kts | 15° |
| 2026-05-06 14:04 | 37.97846 | 32.56356 | 3378 ft | 19 kts | 17° |
| 2026-05-06 14:04 | 37.97972 | 32.56403 | 3380 ft | 14 kts | 16° |
| 2026-05-06 14:04 | 37.98068 | 32.56438 | 3382 ft | 14 kts | 16° |
| 2026-05-06 14:05 | 37.98170 | 32.56475 | 3383 ft | 16 kts | 16° |
| 2026-05-06 14:05 | 37.98282 | 32.56520 | 3384 ft | 17 kts | 19° |
| 2026-05-06 14:05 | 37.98402 | 32.56567 | 3385 ft | 18 kts | 17° |
| 2026-05-06 14:05 | 37.98529 | 32.56613 | 3387 ft | 19 kts | 16° |
| 2026-05-06 14:06 | 37.98605 | 32.56708 | 3384 ft | 18 kts | 106° |
| 2026-05-06 14:06 | 37.98573 | 32.56842 | 3378 ft | 10 kts | 107° |
| 2026-05-06 14:06 | 37.98545 | 32.56960 | 3374 ft | 17 kts | 107° |
| 2026-05-06 14:06 | 37.98506 | 32.57129 | 3367 ft | 23 kts | 108° |
| 2026-05-06 14:07 | 37.98454 | 32.57344 | 3359 ft | 23 kts | 106° |
| 2026-05-06 14:07 | 37.98393 | 32.57455 | 3354 ft | 3 kts | 108° |
| 2026-05-06 14:07 | 37.98385 | 32.57488 | 3353 ft | 0 kts | 108° |